Time;durP1;ratioP1;P1;durP2;ratioP2;P2;SDS_P1;SDS_P2;PMS_P1;PMS_P2;Temp;Humidity;BMP_temperature;BMP_pressure;BME280_temperature;BME280_humidity;BME280_pressure;Samples;Min_cycle;Max_cycle;Signal;HPM_P1;HPM_P2
2024/01/05 00:02:10;;;;;;;10.27;3.05;;;7.50;99.90;;;;;;5044770;28;20409;-72
2024/01/05 00:04:37;;;;;;;7.30;2.60;;;7.60;99.90;;;;;;5033853;28;20424;-72
2024/01/05 00:07:04;;;;;;;11.52;2.70;;;7.60;99.90;;;;;;5044280;28;20409;-72
2024/01/05 00:09:30;;;;;;;8.13;3.03;;;7.60;99.90;;;;;;5041397;28;20445;-72
2024/01/05 00:11:57;;;;;;;11.90;3.30;;;7.60;99.90;;;;;;5037039;28;20433;-72
2024/01/05 00:14:24;;;;;;;9.13;3.00;;;7.60;99.90;;;;;;5042097;28;20922;-72
2024/01/05 00:16:52;;;;;;;8.73;3.53;;;7.60;99.90;;;;;;5041268;28;20409;-72
2024/01/05 00:19:21;;;;;;;11.20;3.25;;;7.60;99.90;;;;;;5034020;28;20763;-72
2024/01/05 00:21:47;;;;;;;8.13;3.00;;;7.70;99.90;;;;;;5037289;28;21074;-72
2024/01/05 00:24:14;;;;;;;10.20;2.75;;;7.70;99.90;;;;;;5042431;28;20437;-72
2024/01/05 00:26:42;;;;;;;6.93;2.47;;;7.70;99.90;;;;;;5031173;28;20419;-72
2024/01/05 00:29:08;;;;;;;8.87;3.10;;;7.70;99.90;;;;;;5039457;28;20841;-72
2024/01/05 00:31:35;;;;;;;9.63;2.50;;;7.70;99.90;;;;;;5036491;28;20420;-72
2024/01/05 00:34:02;;;;;;;9.15;2.45;;;7.70;99.90;;;;;;5036297;28;20426;-71
2024/01/05 00:36:30;;;;;;;6.75;2.50;;;7.70;99.90;;;;;;5039877;28;20427;-72
2024/01/05 00:38:57;;;;;;;7.20;2.50;;;7.70;99.90;;;;;;5042832;28;20804;-72
2024/01/05 00:41:24;;;;;;;5.97;2.50;;;7.70;99.90;;;;;;5037727;28;20425;-72
2024/01/05 00:43:51;;;;;;;10.73;2.90;;;7.70;99.90;;;;;;5044132;28;20526;-72
2024/01/05 00:46:18;;;;;;;6.97;2.20;;;7.70;99.90;;;;;;5041942;28;20821;-72
2024/01/05 00:48:44;;;;;;;6.72;2.70;;;7.80;99.90;;;;;;5044205;28;20417;-72
2024/01/05 00:51:11;;;;;;;10.10;2.80;;;7.70;99.90;;;;;;5032552;28;20417;-72
2024/01/05 00:53:39;;;;;;;7.75;2.10;;;7.70;99.90;;;;;;5044578;28;20438;-72
2024/01/05 00:56:06;;;;;;;6.55;2.78;;;7.70;99.90;;;;;;5037978;28;20856;-72
2024/01/05 00:58:33;;;;;;;9.65;2.30;;;7.70;99.90;;;;;;5044671;28;20402;-71
2024/01/05 01:01:00;;;;;;;8.95;2.78;;;7.70;99.90;;;;;;5039140;28;20440;-72
2024/01/05 01:03:26;;;;;;;8.63;3.05;;;7.60;99.90;;;;;;5036262;28;20411;-72
2024/01/05 01:05:53;;;;;;;10.63;2.80;;;7.60;99.90;;;;;;5038922;28;20440;-72
2024/01/05 01:08:20;;;;;;;9.37;3.00;;;7.60;99.90;;;;;;5044257;28;20477;-72
2024/01/05 01:10:48;;;;;;;6.47;2.63;;;7.50;99.90;;;;;;5028854;28;20896;-72
2024/01/05 01:13:14;;;;;;;7.97;2.28;;;7.50;99.90;;;;;;5043016;28;20432;-72
2024/01/05 01:15:41;;;;;;;6.50;3.30;;;7.50;99.90;;;;;;5034438;28;20433;-72
2024/01/05 01:18:08;;;;;;;10.57;2.70;;;7.60;99.90;;;;;;5042193;28;20409;-72
2024/01/05 01:20:35;;;;;;;8.52;2.28;;;7.50;99.90;;;;;;5031002;28;20417;-72
2024/01/05 01:23:01;;;;;;;6.50;2.40;;;7.60;99.90;;;;;;5039952;28;20411;-72
2024/01/05 01:25:28;;;;;;;5.18;2.10;;;7.60;99.90;;;;;;5037052;28;20427;-72
2024/01/05 01:27:57;;;;;;;9.40;2.58;;;7.50;99.90;;;;;;5036443;28;20421;-72
2024/01/05 01:30:23;;;;;;;6.80;2.20;;;7.60;99.90;;;;;;5037423;28;20424;-72
2024/01/05 01:32:50;;;;;;;7.45;2.17;;;7.60;99.90;;;;;;5040482;28;20429;-72
2024/01/05 01:35:17;;;;;;;5.03;2.30;;;7.60;99.90;;;;;;5039468;28;20421;-72
2024/01/05 01:37:43;;;;;;;4.60;2.30;;;7.60;99.90;;;;;;5039166;28;20437;-72
2024/01/05 01:40:11;;;;;;;8.20;2.42;;;7.60;99.90;;;;;;5029034;28;20413;-71
2024/01/05 01:42:38;;;;;;;7.70;2.95;;;7.60;99.90;;;;;;5033190;28;20409;-72
2024/01/05 01:45:07;;;;;;;6.70;2.53;;;7.60;99.90;;;;;;5040305;28;20420;-72
2024/01/05 01:47:34;;;;;;;5.55;2.20;;;7.50;99.90;;;;;;5041302;28;20424;-72
2024/01/05 01:50:02;;;;;;;7.38;2.40;;;7.60;99.90;;;;;;5035338;28;20433;-72
2024/01/05 01:52:29;;;;;;;7.85;2.50;;;7.60;99.90;;;;;;5046595;28;20964;-72
2024/01/05 01:54:56;;;;;;;7.80;2.22;;;7.60;99.90;;;;;;5042599;28;20429;-72
2024/01/05 01:57:23;;;;;;;6.68;2.42;;;7.50;99.90;;;;;;5042654;28;20425;-72
2024/01/05 01:59:51;;;;;;;6.80;2.58;;;7.50;99.90;;;;;;5038284;28;20421;-72
2024/01/05 02:02:19;;;;;;;7.15;2.50;;;7.50;99.90;;;;;;5047713;28;20436;-72
2024/01/05 02:04:47;;;;;;;8.32;2.75;;;7.50;99.90;;;;;;5044931;28;20467;-72
2024/01/05 02:07:13;;;;;;;6.78;2.10;;;7.50;99.90;;;;;;5044842;28;20435;-71
2024/01/05 02:09:41;;;;;;;7.22;2.90;;;7.60;99.90;;;;;;5044117;28;20432;-71
2024/01/05 02:12:08;;;;;;;5.38;2.05;;;7.50;99.90;;;;;;5044951;28;20818;-71
2024/01/05 02:14:35;;;;;;;7.83;2.10;;;7.50;99.90;;;;;;5038281;28;20417;-71
2024/01/05 02:17:02;;;;;;;6.45;2.10;;;7.50;99.90;;;;;;5047808;28;20432;-72
2024/01/05 02:19:30;;;;;;;5.88;2.30;;;7.60;99.90;;;;;;5037342;28;20420;-71
2024/01/05 02:21:59;;;;;;;10.70;2.50;;;7.60;99.90;;;;;;5044662;28;20433;-73
2024/01/05 02:24:27;;;;;;;8.00;2.13;;;7.60;99.90;;;;;;5042448;28;20440;-72
2024/01/05 02:26:54;;;;;;;5.90;2.30;;;7.60;99.90;;;;;;5032159;28;21246;-72
2024/01/05 02:29:21;;;;;;;7.03;2.38;;;7.60;99.90;;;;;;5032851;28;20438;-72
2024/01/05 02:31:49;;;;;;;8.20;2.30;;;7.50;99.90;;;;;;5045262;28;20422;-72
2024/01/05 02:34:16;;;;;;;8.68;2.30;;;7.50;99.90;;;;;;5037162;28;20439;-72
2024/01/05 02:36:42;;;;;;;7.30;2.00;;;7.50;99.90;;;;;;5034773;28;20442;-72
2024/01/05 02:39:09;;;;;;;6.05;2.20;;;7.50;99.90;;;;;;5044738;28;20475;-72
2024/01/05 02:41:37;;;;;;;8.25;2.47;;;7.50;99.90;;;;;;5041249;28;20423;-72
2024/01/05 02:44:04;;;;;;;7.50;2.20;;;7.50;99.90;;;;;;5038163;28;20442;-71
2024/01/05 02:46:33;;;;;;;5.85;2.20;;;7.50;99.90;;;;;;5034157;28;20808;-72
2024/01/05 02:49:00;;;;;;;6.68;2.13;;;7.50;99.90;;;;;;5037301;28;20425;-70
2024/01/05 02:51:26;;;;;;;8.15;2.53;;;7.50;99.90;;;;;;5043188;28;20405;-71
2024/01/05 02:53:53;;;;;;;7.27;2.33;;;7.50;99.90;;;;;;5041223;28;20952;-71
2024/01/05 02:56:21;;;;;;;5.38;2.78;;;7.40;99.90;;;;;;5041068;28;20807;-71
2024/01/05 02:58:49;;;;;;;7.30;2.30;;;7.40;99.90;;;;;;5046153;28;20413;-70
2024/01/05 03:01:16;;;;;;;7.60;2.37;;;7.40;99.90;;;;;;5033486;28;20414;-70
2024/01/05 03:03:45;;;;;;;4.90;1.90;;;7.40;99.90;;;;;;5046475;28;20413;-70
2024/01/05 03:06:12;;;;;;;5.50;2.40;;;7.50;99.90;;;;;;5035819;28;20502;-71
2024/01/05 03:08:38;;;;;;;11.93;3.40;;;7.50;99.90;;;;;;5046284;28;20437;-71
2024/01/05 03:11:05;;;;;;;4.63;2.28;;;7.40;99.90;;;;;;5035785;28;20424;-71
2024/01/05 03:13:32;;;;;;;7.28;2.38;;;7.40;99.90;;;;;;5045276;28;20434;-71
2024/01/05 03:16:00;;;;;;;5.43;2.35;;;7.40;99.90;;;;;;5037046;28;20410;-71
2024/01/05 03:18:27;;;;;;;6.40;2.00;;;7.40;99.90;;;;;;5046980;28;20447;-71
2024/01/05 03:20:54;;;;;;;5.07;2.25;;;7.50;99.90;;;;;;5038795;28;20423;-71
2024/01/05 03:23:20;;;;;;;7.20;2.10;;;7.50;99.90;;;;;;5045542;28;20437;-71
2024/01/05 03:25:48;;;;;;;6.25;2.28;;;7.50;99.90;;;;;;5033019;28;20822;-71
2024/01/05 03:28:15;;;;;;;5.63;2.13;;;7.50;99.90;;;;;;5042425;28;20429;-71
2024/01/05 03:30:42;;;;;;;8.25;2.50;;;7.50;99.90;;;;;;5039616;28;20464;-71
2024/01/05 03:33:10;;;;;;;7.00;2.40;;;7.50;99.90;;;;;;5047756;28;20434;-71
2024/01/05 03:35:37;;;;;;;6.15;2.42;;;7.40;99.90;;;;;;5024836;28;20984;-71
2024/01/05 03:38:04;;;;;;;7.15;2.25;;;7.50;99.90;;;;;;5044003;28;20923;-71
2024/01/05 03:40:31;;;;;;;5.30;2.40;;;7.50;99.90;;;;;;5027464;28;20417;-71
2024/01/05 03:42:58;;;;;;;3.20;1.70;;;7.50;99.90;;;;;;5047146;28;20436;-71
2024/01/05 03:45:24;;;;;;;5.22;2.30;;;7.50;99.90;;;;;;5040379;28;20425;-71
2024/01/05 03:47:51;;;;;;;4.90;2.30;;;7.40;99.90;;;;;;5045054;28;20433;-70
2024/01/05 03:50:20;;;;;;;6.03;2.40;;;7.40;99.90;;;;;;5036685;28;20441;-72
2024/01/05 03:52:46;;;;;;;6.28;2.40;;;7.30;99.90;;;;;;5040248;28;20871;-72
2024/01/05 03:55:13;;;;;;;6.25;2.20;;;7.30;99.90;;;;;;5033182;28;20421;-70
2024/01/05 03:57:40;;;;;;;7.13;3.30;;;7.30;99.90;;;;;;5045615;28;20416;-72
2024/01/05 04:00:09;;;;;;;6.88;2.38;;;7.30;99.90;;;;;;5041984;28;20432;-72
2024/01/05 04:02:36;;;;;;;5.50;2.10;;;7.20;99.90;;;;;;5041629;28;20434;-70
2024/01/05 04:05:02;;;;;;;6.43;2.40;;;7.20;99.90;;;;;;5029662;28;21291;-72
2024/01/05 04:07:30;;;;;;;6.72;2.60;;;7.20;99.90;;;;;;5043292;28;20429;-71
2024/01/05 04:09:57;;;;;;;6.22;2.90;;;7.20;99.90;;;;;;5029780;22;20459;-68
2024/01/05 04:12:24;;;;;;;6.75;2.45;;;7.20;99.90;;;;;;5007853;28;20485;-65
2024/01/05 04:14:51;;;;;;;6.82;2.72;;;7.20;99.90;;;;;;5001705;28;20436;-65
2024/01/05 04:17:17;;;;;;;7.13;2.50;;;7.20;99.90;;;;;;5000054;28;20452;-66
2024/01/05 04:19:44;;;;;;;7.28;2.47;;;7.30;99.90;;;;;;5007331;28;20439;-65
2024/01/05 04:22:11;;;;;;;5.05;2.30;;;7.30;99.90;;;;;;5000164;28;20433;-66
2024/01/05 04:24:39;;;;;;;5.28;2.30;;;7.40;99.90;;;;;;5003345;28;20432;-66
2024/01/05 04:27:05;;;;;;;4.60;2.10;;;7.50;99.90;;;;;;5011245;28;20429;-66
2024/01/05 04:29:32;;;;;;;5.15;2.30;;;7.50;99.90;;;;;;5009027;28;20436;-65
2024/01/05 04:31:59;;;;;;;5.32;2.20;;;7.50;99.90;;;;;;5005479;28;20506;-68
2024/01/05 04:34:26;;;;;;;8.75;2.42;;;7.60;99.90;;;;;;5008005;28;20893;-66
2024/01/05 04:36:52;;;;;;;4.93;2.50;;;7.60;99.90;;;;;;5008835;28;20474;-67
2024/01/05 04:39:19;;;;;;;6.53;2.30;;;7.70;99.90;;;;;;5004495;28;20448;-65
2024/01/05 04:41:48;;;;;;;6.15;2.10;;;7.70;99.90;;;;;;5002551;28;20474;-66
2024/01/05 04:44:14;;;;;;;3.15;2.05;;;7.80;99.90;;;;;;5005956;28;20594;-64
2024/01/05 04:46:41;;;;;;;6.25;2.35;;;7.80;99.90;;;;;;5001931;28;20423;-66
2024/01/05 04:49:08;;;;;;;7.55;2.55;;;7.80;99.90;;;;;;5001805;28;20658;-63
2024/01/05 04:51:35;;;;;;;6.20;2.88;;;7.90;99.90;;;;;;5007415;28;20431;-65
2024/01/05 04:54:03;;;;;;;4.70;2.40;;;7.90;99.90;;;;;;5004774;28;20446;-65
2024/01/05 04:56:30;;;;;;;6.00;2.77;;;7.90;99.90;;;;;;4995867;28;20452;-65
2024/01/05 04:58:58;;;;;;;5.00;2.00;;;8.00;99.90;;;;;;5006505;28;20426;-65
2024/01/05 05:01:25;;;;;;;6.88;2.50;;;8.00;99.90;;;;;;4997012;28;20901;-67
2024/01/05 05:03:51;;;;;;;3.50;2.20;;;8.00;99.90;;;;;;5002252;28;20780;-68
2024/01/05 05:06:18;;;;;;;5.28;1.88;;;8.00;99.90;;;;;;4998634;28;20551;-68
2024/01/05 05:08:45;;;;;;;4.85;2.10;;;8.00;99.90;;;;;;5005594;28;20463;-68
2024/01/05 05:11:12;;;;;;;4.40;1.90;;;8.00;99.90;;;;;;5012263;28;20425;-68
2024/01/05 05:13:38;;;;;;;5.17;1.90;;;8.00;99.90;;;;;;5012925;28;20443;-67
2024/01/05 05:16:07;;;;;;;5.53;2.30;;;8.00;99.90;;;;;;5000873;28;20413;-68
2024/01/05 05:18:34;;;;;;;4.93;1.60;;;8.10;99.90;;;;;;5002613;28;20416;-68
2024/01/05 05:21:00;;;;;;;3.90;1.90;;;8.10;99.90;;;;;;4998164;28;20443;-68
2024/01/05 05:23:27;;;;;;;3.80;1.70;;;8.20;99.90;;;;;;5004232;28;20425;-68
2024/01/05 05:25:54;;;;;;;4.55;1.70;;;8.30;99.90;;;;;;5004431;28;20428;-68
2024/01/05 05:28:20;;;;;;;5.18;1.85;;;8.40;99.90;;;;;;5011331;28;20430;-67
2024/01/05 05:30:47;;;;;;;6.53;2.50;;;8.50;99.90;;;;;;5011660;28;20412;-67
2024/01/05 05:33:15;;;;;;;5.00;1.70;;;8.50;99.90;;;;;;5007286;28;20544;-68
2024/01/05 05:35:42;;;;;;;5.82;2.28;;;8.60;99.90;;;;;;5003724;28;20424;-68
2024/01/05 05:38:09;;;;;;;5.13;2.35;;;8.70;99.90;;;;;;5005717;28;20754;-67
2024/01/05 05:40:35;;;;;;;4.23;1.90;;;8.70;99.90;;;;;;4999852;28;20447;-67
2024/01/05 05:43:02;;;;;;;3.67;2.00;;;8.70;99.90;;;;;;5006776;28;20728;-68
2024/01/05 05:45:29;;;;;;;4.20;2.10;;;8.70;99.90;;;;;;5001783;28;20443;-67
2024/01/05 05:47:56;;;;;;;4.88;2.00;;;8.80;99.90;;;;;;5001947;28;20436;-68
2024/01/05 05:50:24;;;;;;;6.22;2.40;;;8.80;99.90;;;;;;5004198;28;20420;-68
2024/01/05 05:52:51;;;;;;;5.38;2.17;;;8.80;99.90;;;;;;5005725;28;20827;-67
2024/01/05 05:55:18;;;;;;;4.95;1.63;;;8.90;99.90;;;;;;5003526;28;20440;-67
2024/01/05 05:57:44;;;;;;;3.80;1.70;;;8.90;99.90;;;;;;5007393;28;20906;-68
2024/01/05 06:00:12;;;;;;;3.40;1.90;;;8.90;99.90;;;;;;5003903;28;20466;-68
2024/01/05 06:02:39;;;;;;;3.00;1.73;;;8.90;99.90;;;;;;4997618;28;20409;-67
2024/01/05 06:05:07;;;;;;;6.47;2.55;;;8.90;99.90;;;;;;4997033;28;20450;-66
2024/01/05 06:07:35;;;;;;;3.10;1.40;;;8.90;99.90;;;;;;5004480;28;20528;-68
2024/01/05 06:10:02;;;;;;;3.40;1.67;;;8.80;99.90;;;;;;5003351;28;20513;-67
2024/01/05 06:12:29;;;;;;;4.93;1.73;;;8.70;99.90;;;;;;5004044;28;20887;-67
2024/01/05 06:14:56;;;;;;;4.07;1.77;;;8.60;99.90;;;;;;5002651;28;20826;-67
2024/01/05 06:17:22;;;;;;;3.65;1.88;;;8.60;99.90;;;;;;5005125;28;20787;-67
2024/01/05 06:19:49;;;;;;;4.07;1.63;;;8.50;99.90;;;;;;5009681;28;20421;-67
2024/01/05 06:22:16;;;;;;;3.90;1.77;;;8.50;99.90;;;;;;5001460;28;20436;-67
2024/01/05 06:24:46;;;;;;;3.67;1.60;;;8.40;99.90;;;;;;5010365;28;20417;-68
2024/01/05 06:27:13;;;;;;;4.20;1.90;;;8.40;99.90;;;;;;5001580;28;20468;-66
2024/01/05 06:29:39;;;;;;;3.70;1.80;;;8.40;99.90;;;;;;5004635;28;20469;-67
2024/01/05 06:32:07;;;;;;;3.88;2.00;;;8.40;99.90;;;;;;5004112;28;20416;-65
2024/01/05 06:34:33;;;;;;;3.10;1.70;;;8.30;99.90;;;;;;5008756;28;20440;-66
2024/01/05 06:37:00;;;;;;;5.95;1.90;;;8.30;99.90;;;;;;5003055;28;20432;-65
2024/01/05 06:39:27;;;;;;;2.85;1.45;;;8.30;99.90;;;;;;5003942;28;20788;-65
2024/01/05 06:41:55;;;;;;;4.30;1.67;;;8.20;99.90;;;;;;5004187;28;20416;-66
2024/01/05 06:44:22;;;;;;;2.67;1.38;;;8.20;99.90;;;;;;5003751;28;20464;-65
2024/01/05 06:46:50;;;;;;;3.95;1.52;;;8.20;99.90;;;;;;5002820;28;20444;-65
2024/01/05 06:49:17;;;;;;;5.27;1.60;;;8.20;99.90;;;;;;5005787;28;20918;-65
2024/01/05 06:51:44;;;;;;;3.45;1.42;;;8.20;99.90;;;;;;5002712;28;20496;-65
2024/01/05 06:54:12;;;;;;;2.90;1.42;;;8.30;99.90;;;;;;5007492;28;20894;-66
2024/01/05 06:56:42;;;;;;;2.05;1.05;;;8.30;99.90;;;;;;4996427;28;20504;-67
2024/01/05 06:59:10;;;;;;;3.85;1.60;;;8.20;99.90;;;;;;5008692;28;20441;-65
2024/01/05 07:01:36;;;;;;;3.25;1.70;;;8.30;99.90;;;;;;5001936;28;20428;-65
2024/01/05 07:04:03;;;;;;;3.10;1.40;;;8.30;99.90;;;;;;5010246;28;20411;-64
2024/01/05 07:06:30;;;;;;;5.80;1.90;;;8.40;99.90;;;;;;5007138;28;20925;-66
2024/01/05 07:08:57;;;;;;;3.17;1.40;;;8.40;99.90;;;;;;5004091;28;20425;-65
2024/01/05 07:11:24;;;;;;;3.50;1.50;;;8.40;99.90;;;;;;5006267;28;20555;-66
2024/01/05 07:13:52;;;;;;;4.22;2.20;;;8.50;99.90;;;;;;5003824;28;20447;-65
2024/01/05 07:16:21;;;;;;;4.65;1.60;;;8.50;99.90;;;;;;5001453;28;20436;-65
2024/01/05 07:18:49;;;;;;;3.00;1.93;;;8.50;99.90;;;;;;5002549;28;20509;-66
2024/01/05 07:21:16;;;;;;;4.20;2.35;;;8.50;99.90;;;;;;5002965;28;20860;-65
2024/01/05 07:23:43;;;;;;;4.10;1.50;;;8.50;99.90;;;;;;5003674;28;20921;-65
2024/01/05 07:26:10;;;;;;;2.83;1.65;;;8.40;99.90;;;;;;5001462;28;20897;-66
2024/01/05 07:28:37;;;;;;;3.72;1.73;;;8.30;99.90;;;;;;5006932;28;20899;-66
2024/01/05 07:31:05;;;;;;;3.80;1.90;;;8.30;99.90;;;;;;5003652;28;20473;-66
2024/01/05 07:33:33;;;;;;;3.10;1.60;;;8.40;99.90;;;;;;5005814;28;20535;-68
2024/01/05 07:36:04;;;;;;;3.80;1.70;;;8.40;99.90;;;;;;5002097;28;20440;-66
2024/01/05 07:38:31;;;;;;;3.72;1.50;;;8.50;99.90;;;;;;5010748;28;20602;-66
2024/01/05 07:40:58;;;;;;;4.53;1.70;;;8.50;99.90;;;;;;5001046;28;20942;-65
2024/01/05 07:43:25;;;;;;;3.08;1.40;;;8.50;99.90;;;;;;5008909;28;20421;-69
2024/01/05 07:45:52;;;;;;;3.63;1.48;;;8.50;99.90;;;;;;5016120;28;20478;-66
2024/01/05 07:48:19;;;;;;;3.75;1.52;;;8.50;99.90;;;;;;5016979;28;20432;-66
2024/01/05 07:50:47;;;;;;;2.45;1.00;;;8.50;99.90;;;;;;5016362;28;20749;-64
2024/01/05 07:53:14;;;;;;;4.65;1.73;;;8.50;99.90;;;;;;5025546;28;20446;-65
2024/01/05 07:55:41;;;;;;;4.85;1.70;;;8.50;99.90;;;;;;5018553;28;20488;-66
2024/01/05 07:58:08;;;;;;;3.80;1.50;;;8.40;99.90;;;;;;5021397;28;20425;-66
2024/01/05 08:00:35;;;;;;;4.97;1.50;;;8.30;99.90;;;;;;5014949;28;20858;-66
2024/01/05 08:03:05;;;;;;;2.27;1.13;;;8.30;99.90;;;;;;5004070;28;20627;-65
2024/01/05 08:05:31;;;;;;;3.45;1.25;;;8.30;99.90;;;;;;5001044;28;20459;-65
2024/01/05 08:07:59;;;;;;;3.30;1.50;;;8.30;99.90;;;;;;5001290;28;20467;-66
2024/01/05 08:10:26;;;;;;;4.38;1.38;;;8.30;99.90;;;;;;5005831;28;20911;-67
2024/01/05 08:12:54;;;;;;;4.10;1.50;;;8.30;99.90;;;;;;5004343;28;20465;-65
2024/01/05 08:15:20;;;;;;;4.18;1.63;;;8.30;99.90;;;;;;5010688;28;20439;-66
2024/01/05 08:17:47;;;;;;;3.45;1.50;;;8.40;99.90;;;;;;5008366;28;20433;-67
2024/01/05 08:20:15;;;;;;;3.30;1.00;;;8.40;99.90;;;;;;5007022;28;20419;-66
2024/01/05 08:22:41;;;;;;;3.17;1.38;;;8.50;99.90;;;;;;4997158;28;20432;-65
2024/01/05 08:25:10;;;;;;;3.75;1.60;;;8.50;99.90;;;;;;5006130;28;20419;-66
2024/01/05 08:27:36;;;;;;;3.13;1.00;;;8.50;99.90;;;;;;5005641;28;20435;-65
2024/01/05 08:30:04;;;;;;;3.30;1.00;;;8.60;99.90;;;;;;5005694;28;20468;-66
2024/01/05 08:32:31;;;;;;;2.70;1.00;;;8.70;99.90;;;;;;5003863;28;20884;-66
2024/01/05 08:34:57;;;;;;;2.97;1.00;;;8.70;99.90;;;;;;5002413;28;20532;-66
2024/01/05 08:37:24;;;;;;;2.92;0.90;;;8.80;99.90;;;;;;5006703;28;20436;-66
2024/01/05 08:39:51;;;;;;;1.80;0.70;;;8.90;99.90;;;;;;5002052;28;20492;-65
2024/01/05 08:42:19;;;;;;;2.60;0.80;;;8.90;99.90;;;;;;5008173;28;20557;-65
2024/01/05 08:44:46;;;;;;;2.00;0.80;;;9.00;99.90;;;;;;5003673;28;20908;-65
2024/01/05 08:47:13;;;;;;;2.30;0.70;;;9.10;99.90;;;;;;4995258;28;20436;-66
2024/01/05 08:49:39;;;;;;;1.70;0.60;;;9.20;99.90;;;;;;5002108;28;20420;-66
2024/01/05 08:52:06;;;;;;;2.30;0.80;;;9.30;99.90;;;;;;5001762;28;20456;-65
2024/01/05 08:54:33;;;;;;;1.70;0.60;;;9.50;99.90;;;;;;5002315;28;20734;-65
2024/01/05 08:57:00;;;;;;;1.75;0.65;;;9.50;99.90;;;;;;5002376;28;20432;-65
2024/01/05 08:59:28;;;;;;;1.50;0.50;;;9.60;99.90;;;;;;5001688;28;20548;-65
2024/01/05 09:01:55;;;;;;;1.20;0.50;;;9.60;99.90;;;;;;5008072;28;20444;-65
2024/01/05 09:04:22;;;;;;;1.27;0.40;;;9.80;99.90;;;;;;5002033;28;20906;-65
2024/01/05 09:06:48;;;;;;;1.27;0.40;;;9.90;99.30;;;;;;5004691;28;20526;-65
2024/01/05 09:09:15;;;;;;;1.08;0.45;;;10.10;98.60;;;;;;5002483;28;20818;-66
2024/01/05 09:11:42;;;;;;;1.90;0.50;;;10.20;98.00;;;;;;5002817;28;20425;-66
2024/01/05 09:14:08;;;;;;;1.20;0.50;;;10.10;96.50;;;;;;5005276;28;20443;-65
2024/01/05 09:16:37;;;;;;;1.85;0.50;;;10.20;97.30;;;;;;5001961;28;20585;-66
2024/01/05 09:19:04;;;;;;;1.20;0.50;;;10.20;97.10;;;;;;5004734;28;20538;-66
2024/01/05 09:21:30;;;;;;;1.20;0.50;;;10.20;96.10;;;;;;5005304;28;20682;-66
2024/01/05 09:23:57;;;;;;;1.20;0.40;;;10.30;96.00;;;;;;5004698;28;20436;-65
2024/01/05 09:26:24;;;;;;;1.30;0.50;;;10.20;95.10;;;;;;5002955;28;20423;-65
2024/01/05 09:28:51;;;;;;;1.67;0.50;;;10.30;95.10;;;;;;5005103;28;20442;-64
2024/01/05 09:31:18;;;;;;;1.38;0.60;;;10.30;94.50;;;;;;5001858;28;20797;-66
2024/01/05 09:33:49;;;;;;;1.30;0.60;;;10.40;94.80;;;;;;5005373;28;20417;-65
2024/01/05 09:36:16;;;;;;;1.20;0.50;;;10.40;92.70;;;;;;5004196;28;20876;-65
2024/01/05 09:38:43;;;;;;;1.40;0.52;;;10.50;91.90;;;;;;5002379;28;20448;-66
2024/01/05 09:41:13;;;;;;;1.13;0.50;;;10.60;91.80;;;;;;5001365;28;20508;-66
2024/01/05 09:43:41;;;;;;;0.90;0.50;;;10.70;91.90;;;;;;5011115;28;20840;-66
2024/01/05 09:46:08;;;;;;;1.25;0.45;;;10.80;89.30;;;;;;5007837;28;20421;-66
2024/01/05 09:48:35;;;;;;;2.10;0.50;;;11.00;88.90;;;;;;5000819;28;20459;-65
2024/01/05 09:51:07;;;;;;;1.00;0.40;;;11.10;83.60;;;;;;5001186;28;20437;-67
2024/01/05 09:53:34;;;;;;;1.35;0.60;;;11.00;79.60;;;;;;5003863;28;20968;-66
2024/01/05 09:56:03;;;;;;;0.88;0.40;;;10.90;83.00;;;;;;5008396;28;20509;-66
2024/01/05 09:58:30;;;;;;;1.08;0.57;;;10.90;79.60;;;;;;5011533;28;20423;-65
2024/01/05 10:01:04;;;;;;;0.90;0.50;;;10.80;79.10;;;;;;5006751;28;20440;-65
2024/01/05 10:03:30;;;;;;;1.70;0.40;;;10.70;80.80;;;;;;5004067;28;20770;-66
2024/01/05 10:05:59;;;;;;;1.40;0.60;;;10.60;83.90;;;;;;5001079;28;20413;-65
2024/01/05 10:08:27;;;;;;;1.60;0.57;;;10.50;83.60;;;;;;5004994;28;20551;-65
2024/01/05 10:10:58;;;;;;;2.00;0.55;;;10.30;85.80;;;;;;5007734;28;20495;-65
2024/01/05 10:13:25;;;;;;;1.00;0.50;;;10.20;89.00;;;;;;5008217;28;20451;-65
2024/01/05 10:15:54;;;;;;;1.23;0.40;;;10.20;91.20;;;;;;5001860;28;20503;-66
2024/01/05 10:18:22;;;;;;;1.10;0.52;;;10.10;89.50;;;;;;5005782;28;20440;-65
2024/01/05 10:20:49;;;;;;;1.67;0.60;;;10.00;91.20;;;;;;5004894;28;20749;-66
2024/01/05 10:23:16;;;;;;;0.80;0.40;;;10.00;90.30;;;;;;5005903;28;20417;-65
2024/01/05 10:25:46;;;;;;;1.92;0.60;;;9.90;91.10;;;;;;5003864;28;20424;-66
2024/01/05 10:28:25;;;;;;;1.80;0.57;;;9.80;90.80;;;;;;5014971;28;20419;-66
2024/01/05 10:30:52;;;;;;;1.23;0.50;;;9.70;91.80;;;;;;5006084;28;20478;-65
2024/01/05 10:33:20;;;;;;;1.30;0.60;;;9.80;90.70;;;;;;5005898;28;20440;-64
2024/01/05 10:35:47;;;;;;;1.20;0.70;;;9.80;91.80;;;;;;5004452;28;20466;-66
2024/01/05 10:38:14;;;;;;;0.95;0.60;;;9.90;91.20;;;;;;5005739;28;20428;-66
2024/01/05 10:40:41;;;;;;;1.58;0.50;;;10.10;88.00;;;;;;5006255;28;20436;-66
2024/01/05 10:43:11;;;;;;;1.80;0.70;;;10.20;87.80;;;;;;5007931;28;20791;-66
2024/01/05 10:45:39;;;;;;;1.75;0.80;;;10.20;86.10;;;;;;5002545;28;20720;-66
2024/01/05 10:48:08;;;;;;;1.77;0.50;;;10.20;84.50;;;;;;5004422;28;20500;-66
2024/01/05 10:50:37;;;;;;;1.63;0.57;;;10.10;82.60;;;;;;5004923;28;20428;-67
2024/01/05 10:53:04;;;;;;;1.50;0.50;;;10.10;85.20;;;;;;5005904;28;20487;-66
2024/01/05 10:55:33;;;;;;;1.45;0.40;;;10.00;86.90;;;;;;5004804;28;20463;-66
2024/01/05 10:58:00;;;;;;;1.30;0.50;;;9.90;88.40;;;;;;5006904;28;20491;-66
2024/01/05 11:00:29;;;;;;;1.02;0.60;;;9.90;91.00;;;;;;5004487;28;20907;-67
2024/01/05 11:03:09;;;;;;;2.20;0.52;;;9.90;90.50;;;;;;5004249;28;21222;-66
2024/01/05 11:05:37;;;;;;;1.50;0.50;;;9.90;89.80;;;;;;5004020;28;20489;-66
2024/01/05 11:08:05;;;;;;;1.40;0.52;;;9.90;87.00;;;;;;5006542;28;20931;-67
2024/01/05 11:10:43;;;;;;;1.10;0.50;;;9.90;86.40;;;;;;5006754;28;20427;-66
2024/01/05 11:13:35;;;;;;;1.13;0.50;;;9.90;85.90;;;;;;5005943;28;20909;-66
2024/01/05 11:16:20;;;;;;;0.85;0.40;;;9.90;83.80;;;;;;5002106;28;20440;-65
2024/01/05 11:19:07;;;;;;;1.80;0.70;;;9.90;83.70;;;;;;5003387;28;20445;-66
2024/01/05 11:21:45;;;;;;;1.20;0.70;;;9.80;84.70;;;;;;4997912;28;20440;-66
2024/01/05 11:24:13;;;;;;;1.60;0.40;;;9.80;81.90;;;;;;5008314;28;20844;-66
2024/01/05 11:26:42;;;;;;;1.80;0.70;;;9.80;82.70;;;;;;5000852;28;20435;-67
2024/01/05 11:29:11;;;;;;;1.97;0.70;;;9.80;83.50;;;;;;5004546;28;20436;-66
2024/01/05 11:31:53;;;;;;;2.40;1.00;;;9.90;83.40;;;;;;5005488;28;20412;-66
2024/01/05 11:34:34;;;;;;;1.08;0.50;;;10.10;82.60;;;;;;5003861;28;20523;-66
2024/01/05 11:37:02;;;;;;;1.20;0.50;;;10.10;79.00;;;;;;4999340;28;20577;-67
2024/01/05 11:39:44;;;;;;;2.50;0.70;;;10.10;81.60;;;;;;5011840;28;20502;-65
2024/01/05 11:42:27;;;;;;;0.80;0.45;;;10.10;85.00;;;;;;5009270;28;20420;-67
2024/01/05 11:44:54;;;;;;;1.83;0.70;;;10.20;83.50;;;;;;5001641;28;20423;-66
2024/01/05 11:47:41;;;;;;;1.02;0.40;;;10.10;80.70;;;;;;5004239;28;20522;-66
2024/01/05 11:50:26;;;;;;;1.50;0.50;;;10.00;83.00;;;;;;5002136;28;20863;-67
2024/01/05 11:53:13;;;;;;;1.75;0.70;;;9.90;82.80;;;;;;4998229;28;20436;-70
2024/01/05 11:55:47;;;;;;;1.38;0.63;;;10.00;90.90;;;;;;4999964;28;20445;-69
2024/01/05 11:58:18;;;;;;;2.00;0.50;;;10.10;91.40;;;;;;5003934;28;20515;-65
2024/01/05 12:00:44;;;;;;;1.30;0.50;;;10.20;82.70;;;;;;5002486;28;20439;-65
2024/01/05 12:03:13;;;;;;;1.00;0.50;;;10.10;82.80;;;;;;5011388;28;20434;-68
2024/01/05 12:05:40;;;;;;;1.50;0.50;;;10.20;84.10;;;;;;5005534;28;21441;-65
2024/01/05 12:08:10;;;;;;;1.70;0.50;;;10.20;79.90;;;;;;5009155;28;20438;-64
2024/01/05 12:10:38;;;;;;;1.50;0.50;;;10.20;83.40;;;;;;5002164;28;20446;-64
2024/01/05 12:13:05;;;;;;;1.60;0.60;;;10.10;82.80;;;;;;5009784;28;20417;-65
2024/01/05 12:15:33;;;;;;;3.00;0.75;;;10.00;83.70;;;;;;5004420;28;20900;-65
2024/01/05 12:18:03;;;;;;;2.43;0.80;;;9.90;83.20;;;;;;5002035;28;20474;-64
2024/01/05 12:20:32;;;;;;;1.52;0.60;;;9.90;81.70;;;;;;5002700;28;20447;-63
2024/01/05 12:22:59;;;;;;;2.30;0.70;;;9.90;86.00;;;;;;5004334;28;20443;-64
2024/01/05 12:25:26;;;;;;;1.80;0.80;;;10.10;84.90;;;;;;5002236;28;21003;-64
2024/01/05 12:27:53;;;;;;;2.35;0.70;;;10.40;79.10;;;;;;5003799;28;20424;-64
2024/01/05 12:30:21;;;;;;;1.05;0.50;;;10.70;76.40;;;;;;5004189;28;20444;-65
2024/01/05 12:32:49;;;;;;;1.75;0.75;;;10.90;73.60;;;;;;5007021;28;20413;-64
2024/01/05 12:35:16;;;;;;;2.33;0.80;;;10.90;73.10;;;;;;5004008;28;20455;-65
2024/01/05 12:37:52;;;;;;;2.00;0.80;;;10.90;75.20;;;;;;5003273;28;20408;-65
2024/01/05 12:40:24;;;;;;;2.58;1.00;;;11.10;71.70;;;;;;5003294;28;20463;-65
2024/01/05 12:42:52;;;;;;;2.70;1.10;;;11.40;71.00;;;;;;5007575;28;20431;-65
2024/01/05 12:45:22;;;;;;;1.80;0.80;;;11.80;69.80;;;;;;5009707;28;20520;-64
2024/01/05 12:47:49;;;;;;;2.20;0.90;;;12.00;67.10;;;;;;5006462;28;20438;-64
2024/01/05 12:50:25;;;;;;;2.20;0.70;;;11.90;66.40;;;;;;5002372;28;20499;-66
2024/01/05 12:52:54;;;;;;;1.77;0.80;;;11.80;67.70;;;;;;4996194;28;20440;-64
2024/01/05 12:55:28;;;;;;;2.40;0.80;;;12.10;66.90;;;;;;5006731;28;20436;-64
2024/01/05 12:58:01;;;;;;;2.80;0.70;;;12.20;65.80;;;;;;4995330;28;20447;-64
2024/01/05 13:00:28;;;;;;;1.92;0.70;;;12.40;64.80;;;;;;5044932;22;20859;-69